sensor_id;sensor_type;location;lat;lon;timestamp;P1;durP1;ratioP1;P2;durP2;ratioP2
7829;SDS011;3960;51.86894000;5.39848000;2023-05-10T00:00:34;45.88;;;21.25;;
7829;SDS011;3960;51.86894000;5.39848000;2023-05-10T00:03:00;50.65;;;22.05;;
7829;SDS011;3960;51.86894000;5.39848000;2023-05-10T00:05:25;51.65;;;21.15;;
7829;SDS011;3960;51.86894000;5.39848000;2023-05-10T00:07:50;52.80;;;22.33;;
7829;SDS011;3960;51.86894000;5.39848000;2023-05-10T00:10:15;59.17;;;24.13;;
7829;SDS011;3960;51.86894000;5.39848000;2023-05-10T00:12:41;65.50;;;24.08;;
7829;SDS011;3960;51.86894000;5.39848000;2023-05-10T00:15:07;56.10;;;24.13;;
7829;SDS011;3960;51.86894000;5.39848000;2023-05-10T00:17:32;59.88;;;24.67;;
7829;SDS011;3960;51.86894000;5.39848000;2023-05-10T00:19:58;63.08;;;24.90;;
7829;SDS011;3960;51.86894000;5.39848000;2023-05-10T00:22:23;65.45;;;26.50;;
7829;SDS011;3960;51.86894000;5.39848000;2023-05-10T00:24:48;59.38;;;25.60;;
7829;SDS011;3960;51.86894000;5.39848000;2023-05-10T00:27:13;67.85;;;27.17;;
7829;SDS011;3960;51.86894000;5.39848000;2023-05-10T00:29:39;84.55;;;28.58;;
7829;SDS011;3960;51.86894000;5.39848000;2023-05-10T00:32:04;80.63;;;29.70;;
7829;SDS011;3960;51.86894000;5.39848000;2023-05-10T00:34:29;75.63;;;28.00;;
7829;SDS011;3960;51.86894000;5.39848000;2023-05-10T00:36:55;74.97;;;28.13;;
7829;SDS011;3960;51.86894000;5.39848000;2023-05-10T00:39:21;81.03;;;29.73;;
7829;SDS011;3960;51.86894000;5.39848000;2023-05-10T00:41:46;85.70;;;29.75;;
7829;SDS011;3960;51.86894000;5.39848000;2023-05-10T00:44:11;88.10;;;30.42;;
7829;SDS011;3960;51.86894000;5.39848000;2023-05-10T00:46:37;98.78;;;31.67;;
7829;SDS011;3960;51.86894000;5.39848000;2023-05-10T00:49:02;88.72;;;28.75;;
7829;SDS011;3960;51.86894000;5.39848000;2023-05-10T00:51:27;90.22;;;29.88;;
7829;SDS011;3960;51.86894000;5.39848000;2023-05-10T00:53:53;103.53;;;33.40;;
7829;SDS011;3960;51.86894000;5.39848000;2023-05-10T00:56:19;102.47;;;33.08;;
7829;SDS011;3960;51.86894000;5.39848000;2023-05-10T00:58:47;100.97;;;32.30;;
7829;SDS011;3960;51.86894000;5.39848000;2023-05-10T01:01:13;97.47;;;33.13;;
7829;SDS011;3960;51.86894000;5.39848000;2023-05-10T01:03:38;103.63;;;32.97;;
7829;SDS011;3960;51.86894000;5.39848000;2023-05-10T01:06:04;101.82;;;32.25;;
7829;SDS011;3960;51.86894000;5.39848000;2023-05-10T01:08:30;111.80;;;33.97;;
7829;SDS011;3960;51.86894000;5.39848000;2023-05-10T01:10:55;98.40;;;34.17;;
7829;SDS011;3960;51.86894000;5.39848000;2023-05-10T01:15:58;109.93;;;35.60;;
7829;SDS011;3960;51.86894000;5.39848000;2023-05-10T01:18:26;102.47;;;35.33;;
7829;SDS011;3960;51.86894000;5.39848000;2023-05-10T01:20:59;111.45;;;37.83;;
7829;SDS011;3960;51.86894000;5.39848000;2023-05-10T01:31:58;97.65;;;35.85;;
7829;SDS011;3960;51.86894000;5.39848000;2023-05-10T01:34:32;94.10;;;36.00;;
7829;SDS011;3960;51.86894000;5.39848000;2023-05-10T01:37:09;91.05;;;34.80;;
7829;SDS011;3960;51.86894000;5.39848000;2023-05-10T01:39:42;87.22;;;34.85;;
7829;SDS011;3960;51.86894000;5.39848000;2023-05-10T01:42:11;88.07;;;34.22;;
7829;SDS011;3960;51.86894000;5.39848000;2023-05-10T01:47:27;83.65;;;31.75;;
7829;SDS011;3960;51.86894000;5.39848000;2023-05-10T01:49:54;78.75;;;32.10;;
7829;SDS011;3960;51.86894000;5.39848000;2023-05-10T01:52:25;76.32;;;32.90;;
7829;SDS011;3960;51.86894000;5.39848000;2023-05-10T01:54:55;77.90;;;31.33;;
7829;SDS011;3960;51.86894000;5.39848000;2023-05-10T01:57:26;84.97;;;31.05;;
7829;SDS011;3960;51.86894000;5.39848000;2023-05-10T01:59:55;75.88;;;30.38;;
7829;SDS011;3960;51.86894000;5.39848000;2023-05-10T02:02:21;88.65;;;32.80;;
7829;SDS011;3960;51.86894000;5.39848000;2023-05-10T02:04:49;73.40;;;31.70;;
7829;SDS011;3960;51.86894000;5.39848000;2023-05-10T02:07:16;77.53;;;32.20;;
7829;SDS011;3960;51.86894000;5.39848000;2023-05-10T02:09:42;88.95;;;32.63;;
7829;SDS011;3960;51.86894000;5.39848000;2023-05-10T02:12:12;81.63;;;31.98;;
7829;SDS011;3960;51.86894000;5.39848000;2023-05-10T02:14:38;84.57;;;32.80;;
7829;SDS011;3960;51.86894000;5.39848000;2023-05-10T02:17:06;82.13;;;32.00;;
7829;SDS011;3960;51.86894000;5.39848000;2023-05-10T02:19:33;85.78;;;32.47;;
7829;SDS011;3960;51.86894000;5.39848000;2023-05-10T02:22:00;88.82;;;32.45;;
7829;SDS011;3960;51.86894000;5.39848000;2023-05-10T02:24:28;93.68;;;33.28;;
7829;SDS011;3960;51.86894000;5.39848000;2023-05-10T02:26:54;95.20;;;34.40;;
7829;SDS011;3960;51.86894000;5.39848000;2023-05-10T02:29:23;101.45;;;33.70;;
7829;SDS011;3960;51.86894000;5.39848000;2023-05-10T02:31:54;92.45;;;32.45;;
7829;SDS011;3960;51.86894000;5.39848000;2023-05-10T02:34:23;92.18;;;33.92;;
7829;SDS011;3960;51.86894000;5.39848000;2023-05-10T02:36:51;102.05;;;34.88;;
7829;SDS011;3960;51.86894000;5.39848000;2023-05-10T02:39:18;97.93;;;34.65;;
7829;SDS011;3960;51.86894000;5.39848000;2023-05-10T02:41:45;103.45;;;34.60;;
7829;SDS011;3960;51.86894000;5.39848000;2023-05-10T02:44:11;99.60;;;33.72;;
7829;SDS011;3960;51.86894000;5.39848000;2023-05-10T02:46:39;91.47;;;34.53;;
7829;SDS011;3960;51.86894000;5.39848000;2023-05-10T02:49:04;101.00;;;36.30;;
7829;SDS011;3960;51.86894000;5.39848000;2023-05-10T02:51:31;104.22;;;34.05;;
7829;SDS011;3960;51.86894000;5.39848000;2023-05-10T02:54:00;91.07;;;33.13;;
7829;SDS011;3960;51.86894000;5.39848000;2023-05-10T02:56:34;90.63;;;33.85;;
7829;SDS011;3960;51.86894000;5.39848000;2023-05-10T02:59:04;103.95;;;35.00;;
7829;SDS011;3960;51.86894000;5.39848000;2023-05-10T03:01:29;90.72;;;34.83;;
7829;SDS011;3960;51.86894000;5.39848000;2023-05-10T03:03:55;93.32;;;33.90;;
7829;SDS011;3960;51.86894000;5.39848000;2023-05-10T03:06:20;89.97;;;31.05;;
7829;SDS011;3960;51.86894000;5.39848000;2023-05-10T03:08:45;92.65;;;33.00;;
7829;SDS011;3960;51.86894000;5.39848000;2023-05-10T03:14:16;84.43;;;34.08;;
7829;SDS011;3960;51.86894000;5.39848000;2023-05-10T03:17:04;94.15;;;34.92;;
7829;SDS011;3960;51.86894000;5.39848000;2023-05-10T03:19:39;94.05;;;36.38;;
7829;SDS011;3960;51.86894000;5.39848000;2023-05-10T03:22:10;92.88;;;35.85;;
7829;SDS011;3960;51.86894000;5.39848000;2023-05-10T03:24:38;100.03;;;34.72;;
7829;SDS011;3960;51.86894000;5.39848000;2023-05-10T03:27:05;92.82;;;35.30;;
7829;SDS011;3960;51.86894000;5.39848000;2023-05-10T03:29:31;98.57;;;33.50;;
7829;SDS011;3960;51.86894000;5.39848000;2023-05-10T03:31:59;95.00;;;34.17;;
7829;SDS011;3960;51.86894000;5.39848000;2023-05-10T03:34:25;88.28;;;31.00;;
7829;SDS011;3960;51.86894000;5.39848000;2023-05-10T03:36:50;93.05;;;32.75;;
7829;SDS011;3960;51.86894000;5.39848000;2023-05-10T03:39:16;99.50;;;34.17;;
7829;SDS011;3960;51.86894000;5.39848000;2023-05-10T03:41:41;102.82;;;35.15;;
7829;SDS011;3960;51.86894000;5.39848000;2023-05-10T03:44:06;101.75;;;34.80;;
7829;SDS011;3960;51.86894000;5.39848000;2023-05-10T03:46:32;96.43;;;34.17;;
7829;SDS011;3960;51.86894000;5.39848000;2023-05-10T03:48:57;96.90;;;34.55;;
7829;SDS011;3960;51.86894000;5.39848000;2023-05-10T03:51:22;93.43;;;33.85;;
7829;SDS011;3960;51.86894000;5.39848000;2023-05-10T03:53:49;101.90;;;34.92;;
7829;SDS011;3960;51.86894000;5.39848000;2023-05-10T03:56:14;103.82;;;34.67;;
7829;SDS011;3960;51.86894000;5.39848000;2023-05-10T03:58:40;99.85;;;33.97;;
7829;SDS011;3960;51.86894000;5.39848000;2023-05-10T04:01:06;101.03;;;35.78;;
7829;SDS011;3960;51.86894000;5.39848000;2023-05-10T04:03:31;94.30;;;34.95;;
7829;SDS011;3960;51.86894000;5.39848000;2023-05-10T04:06:00;101.97;;;34.35;;
7829;SDS011;3960;51.86894000;5.39848000;2023-05-10T04:08:26;95.65;;;35.70;;
7829;SDS011;3960;51.86894000;5.39848000;2023-05-10T04:10:51;100.38;;;35.85;;
7829;SDS011;3960;51.86894000;5.39848000;2023-05-10T04:13:17;98.47;;;33.40;;
7829;SDS011;3960;51.86894000;5.39848000;2023-05-10T04:15:42;98.03;;;35.65;;
7829;SDS011;3960;51.86894000;5.39848000;2023-05-10T04:18:08;110.28;;;35.83;;
7829;SDS011;3960;51.86894000;5.39848000;2023-05-10T04:20:33;111.50;;;36.72;;
7829;SDS011;3960;51.86894000;5.39848000;2023-05-10T04:22:59;109.95;;;34.75;;
7829;SDS011;3960;51.86894000;5.39848000;2023-05-10T04:25:24;104.53;;;36.67;;
7829;SDS011;3960;51.86894000;5.39848000;2023-05-10T04:27:49;103.82;;;36.33;;
7829;SDS011;3960;51.86894000;5.39848000;2023-05-10T04:30:15;118.03;;;37.63;;
7829;SDS011;3960;51.86894000;5.39848000;2023-05-10T04:32:40;111.93;;;36.42;;
7829;SDS011;3960;51.86894000;5.39848000;2023-05-10T04:35:05;115.97;;;37.03;;
7829;SDS011;3960;51.86894000;5.39848000;2023-05-10T04:37:31;102.15;;;35.47;;
7829;SDS011;3960;51.86894000;5.39848000;2023-05-10T04:39:56;99.25;;;34.30;;
7829;SDS011;3960;51.86894000;5.39848000;2023-05-10T04:42:21;87.80;;;32.60;;
7829;SDS011;3960;51.86894000;5.39848000;2023-05-10T04:44:46;108.93;;;35.08;;
7829;SDS011;3960;51.86894000;5.39848000;2023-05-10T04:47:12;110.75;;;36.70;;
7829;SDS011;3960;51.86894000;5.39848000;2023-05-10T04:49:38;99.95;;;36.13;;
7829;SDS011;3960;51.86894000;5.39848000;2023-05-10T04:52:03;93.50;;;33.03;;
7829;SDS011;3960;51.86894000;5.39848000;2023-05-10T04:54:28;94.18;;;35.90;;
7829;SDS011;3960;51.86894000;5.39848000;2023-05-10T04:56:54;104.00;;;35.83;;
7829;SDS011;3960;51.86894000;5.39848000;2023-05-10T04:59:19;98.88;;;35.83;;
7829;SDS011;3960;51.86894000;5.39848000;2023-05-10T05:01:44;98.22;;;37.33;;
7829;SDS011;3960;51.86894000;5.39848000;2023-05-10T05:04:09;96.45;;;35.85;;
7829;SDS011;3960;51.86894000;5.39848000;2023-05-10T05:06:35;99.00;;;35.75;;
7829;SDS011;3960;51.86894000;5.39848000;2023-05-10T05:09:00;100.55;;;36.80;;
7829;SDS011;3960;51.86894000;5.39848000;2023-05-10T05:11:25;94.60;;;38.00;;
7829;SDS011;3960;51.86894000;5.39848000;2023-05-10T05:13:51;92.45;;;37.28;;
7829;SDS011;3960;51.86894000;5.39848000;2023-05-10T05:16:16;88.95;;;33.90;;
7829;SDS011;3960;51.86894000;5.39848000;2023-05-10T05:18:41;99.50;;;36.83;;
7829;SDS011;3960;51.86894000;5.39848000;2023-05-10T05:21:13;110.18;;;37.88;;
7829;SDS011;3960;51.86894000;5.39848000;2023-05-10T05:23:42;97.85;;;33.85;;
7829;SDS011;3960;51.86894000;5.39848000;2023-05-10T05:26:08;101.07;;;33.80;;
7829;SDS011;3960;51.86894000;5.39848000;2023-05-10T05:28:33;102.32;;;34.80;;
7829;SDS011;3960;51.86894000;5.39848000;2023-05-10T05:31:02;106.57;;;35.13;;
7829;SDS011;3960;51.86894000;5.39848000;2023-05-10T05:33:27;103.40;;;34.78;;
7829;SDS011;3960;51.86894000;5.39848000;2023-05-10T05:35:52;96.07;;;33.03;;
7829;SDS011;3960;51.86894000;5.39848000;2023-05-10T05:38:18;89.53;;;32.42;;
7829;SDS011;3960;51.86894000;5.39848000;2023-05-10T05:40:43;92.28;;;33.35;;
7829;SDS011;3960;51.86894000;5.39848000;2023-05-10T05:43:08;90.97;;;31.35;;
7829;SDS011;3960;51.86894000;5.39848000;2023-05-10T05:45:33;97.28;;;32.67;;
7829;SDS011;3960;51.86894000;5.39848000;2023-05-10T05:47:59;88.20;;;30.75;;
7829;SDS011;3960;51.86894000;5.39848000;2023-05-10T05:50:24;89.88;;;30.65;;
7829;SDS011;3960;51.86894000;5.39848000;2023-05-10T05:52:49;77.18;;;29.50;;
7829;SDS011;3960;51.86894000;5.39848000;2023-05-10T05:55:15;72.80;;;28.67;;
7829;SDS011;3960;51.86894000;5.39848000;2023-05-10T05:57:40;75.15;;;28.15;;
7829;SDS011;3960;51.86894000;5.39848000;2023-05-10T06:00:05;74.38;;;29.33;;
7829;SDS011;3960;51.86894000;5.39848000;2023-05-10T06:02:31;76.53;;;29.85;;
7829;SDS011;3960;51.86894000;5.39848000;2023-05-10T06:04:56;79.72;;;31.27;;
7829;SDS011;3960;51.86894000;5.39848000;2023-05-10T06:07:22;76.20;;;30.75;;
7829;SDS011;3960;51.86894000;5.39848000;2023-05-10T06:09:47;90.22;;;32.00;;
7829;SDS011;3960;51.86894000;5.39848000;2023-05-10T06:12:12;90.20;;;32.45;;
7829;SDS011;3960;51.86894000;5.39848000;2023-05-10T06:14:38;84.82;;;33.85;;
7829;SDS011;3960;51.86894000;5.39848000;2023-05-10T06:17:03;89.35;;;33.05;;
7829;SDS011;3960;51.86894000;5.39848000;2023-05-10T06:19:30;90.80;;;34.25;;
7829;SDS011;3960;51.86894000;5.39848000;2023-05-10T06:21:55;95.03;;;35.58;;
7829;SDS011;3960;51.86894000;5.39848000;2023-05-10T06:24:21;88.57;;;35.83;;
7829;SDS011;3960;51.86894000;5.39848000;2023-05-10T06:26:46;98.13;;;36.88;;
7829;SDS011;3960;51.86894000;5.39848000;2023-05-10T06:29:12;93.18;;;36.03;;
7829;SDS011;3960;51.86894000;5.39848000;2023-05-10T06:31:37;94.70;;;34.95;;
7829;SDS011;3960;51.86894000;5.39848000;2023-05-10T06:34:02;99.53;;;35.83;;
7829;SDS011;3960;51.86894000;5.39848000;2023-05-10T06:36:27;88.68;;;36.30;;
7829;SDS011;3960;51.86894000;5.39848000;2023-05-10T06:38:53;105.32;;;38.70;;
7829;SDS011;3960;51.86894000;5.39848000;2023-05-10T06:41:18;100.22;;;39.70;;
7829;SDS011;3960;51.86894000;5.39848000;2023-05-10T06:43:43;110.85;;;40.35;;
7829;SDS011;3960;51.86894000;5.39848000;2023-05-10T06:46:09;118.60;;;40.50;;
7829;SDS011;3960;51.86894000;5.39848000;2023-05-10T06:48:34;113.13;;;40.20;;
7829;SDS011;3960;51.86894000;5.39848000;2023-05-10T06:50:59;105.28;;;37.53;;
7829;SDS011;3960;51.86894000;5.39848000;2023-05-10T06:53:25;105.53;;;39.42;;
7829;SDS011;3960;51.86894000;5.39848000;2023-05-10T06:55:50;106.25;;;39.33;;
7829;SDS011;3960;51.86894000;5.39848000;2023-05-10T06:58:18;111.32;;;38.28;;
7829;SDS011;3960;51.86894000;5.39848000;2023-05-10T07:00:47;107.75;;;40.50;;
7829;SDS011;3960;51.86894000;5.39848000;2023-05-10T07:03:13;108.80;;;40.35;;
7829;SDS011;3960;51.86894000;5.39848000;2023-05-10T07:05:38;102.35;;;40.58;;
7829;SDS011;3960;51.86894000;5.39848000;2023-05-10T07:08:03;97.00;;;40.45;;
7829;SDS011;3960;51.86894000;5.39848000;2023-05-10T07:10:28;94.35;;;40.00;;
7829;SDS011;3960;51.86894000;5.39848000;2023-05-10T07:12:54;101.07;;;40.90;;
7829;SDS011;3960;51.86894000;5.39848000;2023-05-10T07:15:20;101.18;;;40.72;;
7829;SDS011;3960;51.86894000;5.39848000;2023-05-10T07:17:45;108.00;;;40.95;;
7829;SDS011;3960;51.86894000;5.39848000;2023-05-10T07:20:10;109.53;;;41.08;;
7829;SDS011;3960;51.86894000;5.39848000;2023-05-10T07:22:36;101.97;;;37.58;;
7829;SDS011;3960;51.86894000;5.39848000;2023-05-10T07:25:01;94.35;;;38.10;;
7829;SDS011;3960;51.86894000;5.39848000;2023-05-10T07:27:27;82.90;;;35.53;;
7829;SDS011;3960;51.86894000;5.39848000;2023-05-10T07:29:52;84.53;;;35.13;;
7829;SDS011;3960;51.86894000;5.39848000;2023-05-10T07:32:17;78.60;;;32.50;;
7829;SDS011;3960;51.86894000;5.39848000;2023-05-10T07:34:43;77.10;;;32.63;;
7829;SDS011;3960;51.86894000;5.39848000;2023-05-10T07:37:08;76.25;;;31.15;;
7829;SDS011;3960;51.86894000;5.39848000;2023-05-10T07:39:33;62.97;;;28.85;;
7829;SDS011;3960;51.86894000;5.39848000;2023-05-10T07:41:58;61.05;;;26.75;;
7829;SDS011;3960;51.86894000;5.39848000;2023-05-10T07:44:24;65.00;;;26.02;;
7829;SDS011;3960;51.86894000;5.39848000;2023-05-10T07:46:49;55.30;;;24.58;;
7829;SDS011;3960;51.86894000;5.39848000;2023-05-10T07:49:14;52.35;;;22.75;;
7829;SDS011;3960;51.86894000;5.39848000;2023-05-10T07:51:40;55.22;;;23.98;;
7829;SDS011;3960;51.86894000;5.39848000;2023-05-10T07:54:05;48.95;;;23.05;;
7829;SDS011;3960;51.86894000;5.39848000;2023-05-10T07:56:31;47.40;;;22.08;;
7829;SDS011;3960;51.86894000;5.39848000;2023-05-10T07:59:01;43.72;;;22.67;;
7829;SDS011;3960;51.86894000;5.39848000;2023-05-10T08:01:31;46.60;;;22.90;;
7829;SDS011;3960;51.86894000;5.39848000;2023-05-10T08:03:58;43.90;;;21.20;;
7829;SDS011;3960;51.86894000;5.39848000;2023-05-10T08:06:23;48.88;;;22.13;;
7829;SDS011;3960;51.86894000;5.39848000;2023-05-10T08:08:48;49.00;;;21.95;;
7829;SDS011;3960;51.86894000;5.39848000;2023-05-10T08:11:18;43.15;;;21.90;;
7829;SDS011;3960;51.86894000;5.39848000;2023-05-10T08:13:44;44.65;;;20.80;;
7829;SDS011;3960;51.86894000;5.39848000;2023-05-10T08:16:10;39.17;;;20.00;;
7829;SDS011;3960;51.86894000;5.39848000;2023-05-10T08:18:35;37.95;;;19.92;;
7829;SDS011;3960;51.86894000;5.39848000;2023-05-10T08:21:01;34.22;;;17.80;;
7829;SDS011;3960;51.86894000;5.39848000;2023-05-10T08:23:27;30.13;;;17.38;;
7829;SDS011;3960;51.86894000;5.39848000;2023-05-10T08:25:52;29.83;;;15.85;;
7829;SDS011;3960;51.86894000;5.39848000;2023-05-10T08:28:17;32.30;;;15.57;;
7829;SDS011;3960;51.86894000;5.39848000;2023-05-10T08:30:43;25.80;;;13.85;;
7829;SDS011;3960;51.86894000;5.39848000;2023-05-10T08:33:08;24.60;;;13.55;;
7829;SDS011;3960;51.86894000;5.39848000;2023-05-10T08:35:33;15.57;;;9.90;;
7829;SDS011;3960;51.86894000;5.39848000;2023-05-10T08:37:59;18.20;;;10.00;;
7829;SDS011;3960;51.86894000;5.39848000;2023-05-10T08:40:25;16.65;;;9.98;;
7829;SDS011;3960;51.86894000;5.39848000;2023-05-10T08:42:54;17.58;;;9.63;;
7829;SDS011;3960;51.86894000;5.39848000;2023-05-10T08:45:23;14.43;;;8.02;;
7829;SDS011;3960;51.86894000;5.39848000;2023-05-10T08:47:49;13.85;;;7.43;;
7829;SDS011;3960;51.86894000;5.39848000;2023-05-10T08:50:17;9.88;;;6.72;;
7829;SDS011;3960;51.86894000;5.39848000;2023-05-10T08:52:45;14.80;;;7.32;;
7829;SDS011;3960;51.86894000;5.39848000;2023-05-10T08:55:13;14.45;;;7.90;;
7829;SDS011;3960;51.86894000;5.39848000;2023-05-10T08:57:39;12.80;;;7.70;;
7829;SDS011;3960;51.86894000;5.39848000;2023-05-10T09:00:04;14.27;;;7.85;;
7829;SDS011;3960;51.86894000;5.39848000;2023-05-10T09:02:30;12.77;;;8.10;;
7829;SDS011;3960;51.86894000;5.39848000;2023-05-10T09:04:56;15.35;;;8.75;;
7829;SDS011;3960;51.86894000;5.39848000;2023-05-10T09:07:21;16.05;;;9.63;;
7829;SDS011;3960;51.86894000;5.39848000;2023-05-10T09:09:47;13.23;;;9.10;;
7829;SDS011;3960;51.86894000;5.39848000;2023-05-10T09:12:13;16.10;;;8.52;;
7829;SDS011;3960;51.86894000;5.39848000;2023-05-10T09:14:40;12.32;;;7.82;;
7829;SDS011;3960;51.86894000;5.39848000;2023-05-10T09:17:06;10.65;;;7.65;;
7829;SDS011;3960;51.86894000;5.39848000;2023-05-10T09:19:32;15.00;;;6.85;;
7829;SDS011;3960;51.86894000;5.39848000;2023-05-10T09:21:57;12.75;;;6.93;;
7829;SDS011;3960;51.86894000;5.39848000;2023-05-10T09:24:25;13.18;;;7.25;;
7829;SDS011;3960;51.86894000;5.39848000;2023-05-10T09:26:52;11.55;;;6.95;;
7829;SDS011;3960;51.86894000;5.39848000;2023-05-10T09:29:17;9.20;;;6.35;;
7829;SDS011;3960;51.86894000;5.39848000;2023-05-10T09:31:43;9.23;;;5.38;;
7829;SDS011;3960;51.86894000;5.39848000;2023-05-10T09:34:11;8.57;;;5.72;;
7829;SDS011;3960;51.86894000;5.39848000;2023-05-10T09:36:50;9.95;;;6.38;;
7829;SDS011;3960;51.86894000;5.39848000;2023-05-10T09:39:20;9.10;;;6.22;;
7829;SDS011;3960;51.86894000;5.39848000;2023-05-10T09:41:45;9.20;;;5.60;;
7829;SDS011;3960;51.86894000;5.39848000;2023-05-10T09:44:12;8.43;;;5.35;;
7829;SDS011;3960;51.86894000;5.39848000;2023-05-10T09:46:42;13.90;;;5.63;;
7829;SDS011;3960;51.86894000;5.39848000;2023-05-10T09:49:07;8.45;;;5.88;;
7829;SDS011;3960;51.86894000;5.39848000;2023-05-10T09:51:33;7.47;;;4.93;;
7829;SDS011;3960;51.86894000;5.39848000;2023-05-10T09:54:12;8.48;;;4.63;;
7829;SDS011;3960;51.86894000;5.39848000;2023-05-10T09:56:41;7.35;;;5.07;;
7829;SDS011;3960;51.86894000;5.39848000;2023-05-10T09:59:09;7.82;;;4.22;;
7829;SDS011;3960;51.86894000;5.39848000;2023-05-10T10:01:36;6.85;;;4.72;;
7829;SDS011;3960;51.86894000;5.39848000;2023-05-10T10:04:02;6.57;;;4.28;;
7829;SDS011;3960;51.86894000;5.39848000;2023-05-10T10:06:29;5.32;;;4.03;;
7829;SDS011;3960;51.86894000;5.39848000;2023-05-10T10:08:54;5.60;;;3.83;;
7829;SDS011;3960;51.86894000;5.39848000;2023-05-10T10:11:21;6.43;;;3.88;;
7829;SDS011;3960;51.86894000;5.39848000;2023-05-10T10:13:47;6.50;;;4.05;;
7829;SDS011;3960;51.86894000;5.39848000;2023-05-10T10:16:12;5.57;;;3.50;;
7829;SDS011;3960;51.86894000;5.39848000;2023-05-10T10:18:37;4.60;;;3.25;;
7829;SDS011;3960;51.86894000;5.39848000;2023-05-10T10:21:04;5.13;;;3.28;;
7829;SDS011;3960;51.86894000;5.39848000;2023-05-10T10:23:31;4.60;;;3.22;;
7829;SDS011;3960;51.86894000;5.39848000;2023-05-10T10:25:56;4.88;;;3.00;;
7829;SDS011;3960;51.86894000;5.39848000;2023-05-10T10:28:32;5.00;;;3.00;;
7829;SDS011;3960;51.86894000;5.39848000;2023-05-10T10:31:13;5.05;;;3.47;;
7829;SDS011;3960;51.86894000;5.39848000;2023-05-10T10:33:59;4.55;;;3.50;;
7829;SDS011;3960;51.86894000;5.39848000;2023-05-10T10:36:28;5.40;;;3.33;;
7829;SDS011;3960;51.86894000;5.39848000;2023-05-10T10:38:54;8.10;;;3.30;;
7829;SDS011;3960;51.86894000;5.39848000;2023-05-10T10:47:03;4.90;;;3.53;;
7829;SDS011;3960;51.86894000;5.39848000;2023-05-10T10:55:11;6.75;;;3.75;;
7829;SDS011;3960;51.86894000;5.39848000;2023-05-10T10:57:50;4.50;;;3.60;;
7829;SDS011;3960;51.86894000;5.39848000;2023-05-10T11:05:36;6.00;;;4.32;;
7829;SDS011;3960;51.86894000;5.39848000;2023-05-10T11:10:37;6.35;;;4.28;;
7829;SDS011;3960;51.86894000;5.39848000;2023-05-10T11:13:07;7.70;;;4.25;;
7829;SDS011;3960;51.86894000;5.39848000;2023-05-10T11:15:37;6.00;;;4.45;;
7829;SDS011;3960;51.86894000;5.39848000;2023-05-10T11:18:19;5.63;;;4.30;;
7829;SDS011;3960;51.86894000;5.39848000;2023-05-10T11:20:51;7.05;;;4.55;;
7829;SDS011;3960;51.86894000;5.39848000;2023-05-10T11:23:32;7.55;;;4.15;;
7829;SDS011;3960;51.86894000;5.39848000;2023-05-10T11:26:13;5.35;;;4.47;;
7829;SDS011;3960;51.86894000;5.39848000;2023-05-10T11:28:42;5.88;;;4.55;;
7829;SDS011;3960;51.86894000;5.39848000;2023-05-10T11:31:08;6.97;;;5.07;;
7829;SDS011;3960;51.86894000;5.39848000;2023-05-10T11:33:42;8.15;;;5.80;;
7829;SDS011;3960;51.86894000;5.39848000;2023-05-10T11:36:13;8.15;;;5.78;;
7829;SDS011;3960;51.86894000;5.39848000;2023-05-10T11:38:39;9.43;;;6.35;;
7829;SDS011;3960;51.86894000;5.39848000;2023-05-10T11:41:05;9.82;;;6.00;;
7829;SDS011;3960;51.86894000;5.39848000;2023-05-10T11:43:30;9.90;;;6.60;;
7829;SDS011;3960;51.86894000;5.39848000;2023-05-10T11:45:55;9.07;;;5.93;;
7829;SDS011;3960;51.86894000;5.39848000;2023-05-10T11:48:21;12.23;;;5.57;;
7829;SDS011;3960;51.86894000;5.39848000;2023-05-10T11:50:48;10.13;;;5.78;;
7829;SDS011;3960;51.86894000;5.39848000;2023-05-10T11:53:14;7.88;;;5.68;;
7829;SDS011;3960;51.86894000;5.39848000;2023-05-10T11:55:39;9.60;;;6.20;;
7829;SDS011;3960;51.86894000;5.39848000;2023-05-10T11:58:05;10.20;;;6.45;;
7829;SDS011;3960;51.86894000;5.39848000;2023-05-10T12:00:30;8.20;;;6.03;;
7829;SDS011;3960;51.86894000;5.39848000;2023-05-10T12:02:56;9.90;;;6.90;;
7829;SDS011;3960;51.86894000;5.39848000;2023-05-10T12:05:21;12.30;;;5.88;;
7829;SDS011;3960;51.86894000;5.39848000;2023-05-10T12:07:47;8.38;;;6.68;;
7829;SDS011;3960;51.86894000;5.39848000;2023-05-10T12:10:13;7.57;;;6.15;;
7829;SDS011;3960;51.86894000;5.39848000;2023-05-10T12:12:44;9.23;;;7.00;;
7829;SDS011;3960;51.86894000;5.39848000;2023-05-10T12:15:18;9.82;;;6.60;;
7829;SDS011;3960;51.86894000;5.39848000;2023-05-10T12:17:45;7.53;;;5.82;;
7829;SDS011;3960;51.86894000;5.39848000;2023-05-10T12:22:53;9.50;;;6.53;;
7829;SDS011;3960;51.86894000;5.39848000;2023-05-10T12:25:21;7.18;;;6.15;;
7829;SDS011;3960;51.86894000;5.39848000;2023-05-10T12:27:51;8.85;;;6.13;;
7829;SDS011;3960;51.86894000;5.39848000;2023-05-10T12:30:21;6.30;;;5.40;;
7829;SDS011;3960;51.86894000;5.39848000;2023-05-10T12:32:47;7.32;;;6.50;;
7829;SDS011;3960;51.86894000;5.39848000;2023-05-10T12:35:13;6.82;;;5.93;;
7829;SDS011;3960;51.86894000;5.39848000;2023-05-10T12:37:38;7.07;;;6.38;;
7829;SDS011;3960;51.86894000;5.39848000;2023-05-10T12:40:07;7.32;;;5.75;;
7829;SDS011;3960;51.86894000;5.39848000;2023-05-10T12:42:35;6.80;;;6.10;;
7829;SDS011;3960;51.86894000;5.39848000;2023-05-10T12:45:01;7.45;;;6.25;;
7829;SDS011;3960;51.86894000;5.39848000;2023-05-10T12:47:27;6.88;;;6.15;;
7829;SDS011;3960;51.86894000;5.39848000;2023-05-10T12:49:53;6.82;;;6.13;;
7829;SDS011;3960;51.86894000;5.39848000;2023-05-10T12:52:18;7.63;;;5.00;;
7829;SDS011;3960;51.86894000;5.39848000;2023-05-10T12:54:43;5.63;;;5.00;;
7829;SDS011;3960;51.86894000;5.39848000;2023-05-10T12:57:08;5.60;;;4.43;;
7829;SDS011;3960;51.86894000;5.39848000;2023-05-10T12:59:34;6.18;;;5.00;;
7829;SDS011;3960;51.86894000;5.39848000;2023-05-10T13:01:59;6.43;;;5.03;;
7829;SDS011;3960;51.86894000;5.39848000;2023-05-10T13:04:24;5.97;;;4.38;;
7829;SDS011;3960;51.86894000;5.39848000;2023-05-10T13:06:50;7.25;;;4.22;;
7829;SDS011;3960;51.86894000;5.39848000;2023-05-10T13:09:15;6.53;;;4.07;;
7829;SDS011;3960;51.86894000;5.39848000;2023-05-10T13:11:41;6.22;;;4.43;;
7829;SDS011;3960;51.86894000;5.39848000;2023-05-10T13:14:06;8.50;;;4.50;;
7829;SDS011;3960;51.86894000;5.39848000;2023-05-10T13:16:32;5.68;;;4.68;;
7829;SDS011;3960;51.86894000;5.39848000;2023-05-10T13:18:57;5.93;;;4.90;;
7829;SDS011;3960;51.86894000;5.39848000;2023-05-10T13:21:23;7.07;;;5.85;;
7829;SDS011;3960;51.86894000;5.39848000;2023-05-10T13:23:50;8.77;;;6.60;;
7829;SDS011;3960;51.86894000;5.39848000;2023-05-10T13:26:15;8.88;;;7.32;;
7829;SDS011;3960;51.86894000;5.39848000;2023-05-10T13:28:40;8.65;;;7.75;;
7829;SDS011;3960;51.86894000;5.39848000;2023-05-10T13:31:05;8.32;;;7.43;;